sensor_id;sensor_type;location;lat;lon;timestamp;P1;durP1;ratioP1;P2;durP2;ratioP2
70535;SDS011;58089;48.752;11.338;2022-10-16T00:01:53;7.93;;;1.53;;
70535;SDS011;58089;48.752;11.338;2022-10-16T00:04:18;7.47;;;1.70;;
70535;SDS011;58089;48.752;11.338;2022-10-16T00:06:44;5.23;;;1.30;;
70535;SDS011;58089;48.752;11.338;2022-10-16T00:09:09;5.50;;;1.50;;
70535;SDS011;58089;48.752;11.338;2022-10-16T00:11:35;6.67;;;1.80;;
70535;SDS011;58089;48.752;11.338;2022-10-16T00:14:03;8.67;;;1.80;;
70535;SDS011;58089;48.752;11.338;2022-10-16T00:16:31;5.43;;;1.42;;
70535;SDS011;58089;48.752;11.338;2022-10-16T00:18:56;5.40;;;1.60;;
70535;SDS011;58089;48.752;11.338;2022-10-16T00:21:23;5.33;;;2.03;;
70535;SDS011;58089;48.752;11.338;2022-10-16T00:23:54;4.40;;;1.40;;
70535;SDS011;58089;48.752;11.338;2022-10-16T00:26:21;6.05;;;1.70;;
70535;SDS011;58089;48.752;11.338;2022-10-16T00:28:47;4.50;;;2.00;;
70535;SDS011;58089;48.752;11.338;2022-10-16T00:31:13;4.95;;;1.75;;
70535;SDS011;58089;48.752;11.338;2022-10-16T00:33:39;5.10;;;1.70;;
70535;SDS011;58089;48.752;11.338;2022-10-16T00:36:05;5.13;;;1.70;;
70535;SDS011;58089;48.752;11.338;2022-10-16T00:38:32;5.30;;;1.63;;
70535;SDS011;58089;48.752;11.338;2022-10-16T00:40:57;4.88;;;1.50;;
70535;SDS011;58089;48.752;11.338;2022-10-16T00:45:58;4.03;;;1.30;;
70535;SDS011;58089;48.752;11.338;2022-10-16T00:48:24;4.30;;;1.20;;
70535;SDS011;58089;48.752;11.338;2022-10-16T00:50:50;6.22;;;1.25;;
70535;SDS011;58089;48.752;11.338;2022-10-16T00:53:16;4.47;;;1.33;;
70535;SDS011;58089;48.752;11.338;2022-10-16T00:55:41;7.85;;;1.70;;
70535;SDS011;58089;48.752;11.338;2022-10-16T00:58:06;6.90;;;1.50;;
70535;SDS011;58089;48.752;11.338;2022-10-16T01:00:32;6.13;;;1.40;;
70535;SDS011;58089;48.752;11.338;2022-10-16T01:02:59;6.53;;;1.60;;
70535;SDS011;58089;48.752;11.338;2022-10-16T01:05:38;6.45;;;1.67;;
70535;SDS011;58089;48.752;11.338;2022-10-16T01:08:18;4.55;;;1.52;;
70535;SDS011;58089;48.752;11.338;2022-10-16T01:10:51;5.30;;;1.30;;
70535;SDS011;58089;48.752;11.338;2022-10-16T01:16:03;6.93;;;1.80;;
70535;SDS011;58089;48.752;11.338;2022-10-16T01:18:37;5.53;;;1.90;;
70535;SDS011;58089;48.752;11.338;2022-10-16T01:21:06;5.75;;;1.33;;
70535;SDS011;58089;48.752;11.338;2022-10-16T01:23:44;5.00;;;1.50;;
70535;SDS011;58089;48.752;11.338;2022-10-16T01:26:22;4.30;;;1.47;;
70535;SDS011;58089;48.752;11.338;2022-10-16T01:31:42;5.20;;;1.50;;
70535;SDS011;58089;48.752;11.338;2022-10-16T01:34:14;5.00;;;1.40;;
70535;SDS011;58089;48.752;11.338;2022-10-16T01:36:45;7.18;;;1.60;;
70535;SDS011;58089;48.752;11.338;2022-10-16T01:39:13;4.67;;;1.50;;
70535;SDS011;58089;48.752;11.338;2022-10-16T01:41:44;5.68;;;1.60;;
70535;SDS011;58089;48.752;11.338;2022-10-16T01:44:12;4.70;;;1.55;;
70535;SDS011;58089;48.752;11.338;2022-10-16T01:46:42;6.25;;;1.48;;
70535;SDS011;58089;48.752;11.338;2022-10-16T01:49:08;5.03;;;1.73;;
70535;SDS011;58089;48.752;11.338;2022-10-16T01:51:34;4.40;;;1.50;;
70535;SDS011;58089;48.752;11.338;2022-10-16T01:54:00;4.80;;;1.50;;
70535;SDS011;58089;48.752;11.338;2022-10-16T01:56:26;7.20;;;1.85;;
70535;SDS011;58089;48.752;11.338;2022-10-16T01:59:01;5.18;;;1.40;;
70535;SDS011;58089;48.752;11.338;2022-10-16T02:01:31;7.00;;;1.70;;
70535;SDS011;58089;48.752;11.338;2022-10-16T02:03:57;5.57;;;1.30;;
70535;SDS011;58089;48.752;11.338;2022-10-16T02:06:25;5.97;;;2.63;;
70535;SDS011;58089;48.752;11.338;2022-10-16T02:08:50;4.77;;;1.67;;
70535;SDS011;58089;48.752;11.338;2022-10-16T02:11:16;5.10;;;1.60;;
70535;SDS011;58089;48.752;11.338;2022-10-16T02:13:55;5.43;;;1.40;;
70535;SDS011;58089;48.752;11.338;2022-10-16T02:16:32;13.87;;;2.03;;
70535;SDS011;58089;48.752;11.338;2022-10-16T02:19:04;5.95;;;1.30;;
70535;SDS011;58089;48.752;11.338;2022-10-16T02:21:33;4.20;;;1.50;;
70535;SDS011;58089;48.752;11.338;2022-10-16T02:26:35;7.93;;;1.75;;
70535;SDS011;58089;48.752;11.338;2022-10-16T02:29:12;4.80;;;1.47;;
70535;SDS011;58089;48.752;11.338;2022-10-16T02:31:41;7.10;;;1.70;;
70535;SDS011;58089;48.752;11.338;2022-10-16T02:34:09;7.50;;;1.50;;
70535;SDS011;58089;48.752;11.338;2022-10-16T02:36:37;4.63;;;1.48;;
70535;SDS011;58089;48.752;11.338;2022-10-16T02:39:02;4.90;;;1.63;;
70535;SDS011;58089;48.752;11.338;2022-10-16T02:41:30;6.37;;;1.60;;
70535;SDS011;58089;48.752;11.338;2022-10-16T02:43:55;6.18;;;1.70;;
70535;SDS011;58089;48.752;11.338;2022-10-16T02:46:20;5.00;;;1.60;;
70535;SDS011;58089;48.752;11.338;2022-10-16T02:48:46;5.97;;;1.63;;
70535;SDS011;58089;48.752;11.338;2022-10-16T02:51:11;8.67;;;1.60;;
70535;SDS011;58089;48.752;11.338;2022-10-16T02:53:37;4.53;;;1.50;;
70535;SDS011;58089;48.752;11.338;2022-10-16T02:56:02;4.70;;;1.73;;
70535;SDS011;58089;48.752;11.338;2022-10-16T02:58:28;5.07;;;1.27;;
70535;SDS011;58089;48.752;11.338;2022-10-16T03:00:53;6.63;;;1.97;;
70535;SDS011;58089;48.752;11.338;2022-10-16T03:03:20;6.10;;;1.40;;
70535;SDS011;58089;48.752;11.338;2022-10-16T03:05:45;6.00;;;1.57;;
70535;SDS011;58089;48.752;11.338;2022-10-16T03:08:11;4.80;;;1.40;;
70535;SDS011;58089;48.752;11.338;2022-10-16T03:10:36;4.30;;;1.73;;
70535;SDS011;58089;48.752;11.338;2022-10-16T03:13:01;3.90;;;1.43;;
70535;SDS011;58089;48.752;11.338;2022-10-16T03:15:27;4.83;;;1.70;;
70535;SDS011;58089;48.752;11.338;2022-10-16T03:17:53;6.45;;;1.48;;
70535;SDS011;58089;48.752;11.338;2022-10-16T03:20:19;4.67;;;1.50;;
70535;SDS011;58089;48.752;11.338;2022-10-16T03:22:44;8.17;;;2.00;;
70535;SDS011;58089;48.752;11.338;2022-10-16T03:25:09;4.43;;;1.63;;
70535;SDS011;58089;48.752;11.338;2022-10-16T03:27:34;5.97;;;1.30;;
70535;SDS011;58089;48.752;11.338;2022-10-16T03:30:00;7.73;;;1.60;;
70535;SDS011;58089;48.752;11.338;2022-10-16T03:32:25;4.50;;;1.70;;
70535;SDS011;58089;48.752;11.338;2022-10-16T03:34:50;6.90;;;1.40;;
70535;SDS011;58089;48.752;11.338;2022-10-16T03:37:16;5.73;;;1.40;;
70535;SDS011;58089;48.752;11.338;2022-10-16T03:39:41;7.23;;;1.73;;
70535;SDS011;58089;48.752;11.338;2022-10-16T03:42:06;7.43;;;1.70;;
70535;SDS011;58089;48.752;11.338;2022-10-16T03:44:32;7.63;;;2.23;;
70535;SDS011;58089;48.752;11.338;2022-10-16T03:46:57;6.77;;;2.30;;
70535;SDS011;58089;48.752;11.338;2022-10-16T03:49:22;9.83;;;1.90;;
70535;SDS011;58089;48.752;11.338;2022-10-16T03:51:47;4.60;;;1.80;;
70535;SDS011;58089;48.752;11.338;2022-10-16T03:54:13;6.32;;;1.80;;
70535;SDS011;58089;48.752;11.338;2022-10-16T03:56:38;6.07;;;1.50;;
70535;SDS011;58089;48.752;11.338;2022-10-16T03:59:03;9.80;;;1.33;;
70535;SDS011;58089;48.752;11.338;2022-10-16T04:01:29;6.33;;;1.40;;
70535;SDS011;58089;48.752;11.338;2022-10-16T04:03:54;5.27;;;1.27;;
70535;SDS011;58089;48.752;11.338;2022-10-16T04:06:19;5.23;;;1.40;;
70535;SDS011;58089;48.752;11.338;2022-10-16T04:08:45;4.70;;;1.53;;
70535;SDS011;58089;48.752;11.338;2022-10-16T04:11:10;9.50;;;1.48;;
70535;SDS011;58089;48.752;11.338;2022-10-16T04:13:36;8.80;;;1.70;;
70535;SDS011;58089;48.752;11.338;2022-10-16T04:16:01;5.37;;;1.60;;
70535;SDS011;58089;48.752;11.338;2022-10-16T04:18:26;3.85;;;1.30;;
70535;SDS011;58089;48.752;11.338;2022-10-16T04:20:52;4.87;;;1.40;;
70535;SDS011;58089;48.752;11.338;2022-10-16T04:23:18;5.20;;;1.60;;
70535;SDS011;58089;48.752;11.338;2022-10-16T04:25:43;5.95;;;1.58;;
70535;SDS011;58089;48.752;11.338;2022-10-16T04:28:08;4.83;;;1.43;;
70535;SDS011;58089;48.752;11.338;2022-10-16T04:30:33;5.53;;;1.80;;
70535;SDS011;58089;48.752;11.338;2022-10-16T04:32:59;5.53;;;1.80;;
70535;SDS011;58089;48.752;11.338;2022-10-16T04:35:24;7.30;;;1.90;;
70535;SDS011;58089;48.752;11.338;2022-10-16T04:37:49;5.47;;;1.87;;
70535;SDS011;58089;48.752;11.338;2022-10-16T04:40:15;4.45;;;1.50;;
70535;SDS011;58089;48.752;11.338;2022-10-16T04:42:41;5.80;;;1.80;;
70535;SDS011;58089;48.752;11.338;2022-10-16T04:45:06;6.27;;;1.90;;
70535;SDS011;58089;48.752;11.338;2022-10-16T04:47:33;5.65;;;2.90;;
70535;SDS011;58089;48.752;11.338;2022-10-16T04:49:58;7.47;;;2.90;;
70535;SDS011;58089;48.752;11.338;2022-10-16T04:52:27;7.00;;;3.80;;
70535;SDS011;58089;48.752;11.338;2022-10-16T04:54:52;7.27;;;3.27;;
70535;SDS011;58089;48.752;11.338;2022-10-16T04:57:18;6.00;;;2.80;;
70535;SDS011;58089;48.752;11.338;2022-10-16T04:59:44;5.40;;;2.20;;
70535;SDS011;58089;48.752;11.338;2022-10-16T05:02:09;6.10;;;2.20;;
70535;SDS011;58089;48.752;11.338;2022-10-16T05:04:34;6.23;;;2.10;;
70535;SDS011;58089;48.752;11.338;2022-10-16T05:06:59;5.97;;;2.10;;
70535;SDS011;58089;48.752;11.338;2022-10-16T05:09:25;5.10;;;2.30;;
70535;SDS011;58089;48.752;11.338;2022-10-16T05:11:50;5.10;;;2.22;;
70535;SDS011;58089;48.752;11.338;2022-10-16T05:14:15;6.60;;;2.27;;
70535;SDS011;58089;48.752;11.338;2022-10-16T05:16:41;5.67;;;2.27;;
70535;SDS011;58089;48.752;11.338;2022-10-16T05:19:06;4.83;;;2.20;;
70535;SDS011;58089;48.752;11.338;2022-10-16T05:21:31;7.13;;;2.70;;
70535;SDS011;58089;48.752;11.338;2022-10-16T05:23:57;6.50;;;2.73;;
70535;SDS011;58089;48.752;11.338;2022-10-16T05:26:22;6.87;;;3.50;;
70535;SDS011;58089;48.752;11.338;2022-10-16T05:28:47;8.60;;;3.00;;
70535;SDS011;58089;48.752;11.338;2022-10-16T05:31:14;6.97;;;2.50;;
70535;SDS011;58089;48.752;11.338;2022-10-16T05:33:39;6.33;;;2.57;;
70535;SDS011;58089;48.752;11.338;2022-10-16T05:36:05;6.07;;;3.03;;
70535;SDS011;58089;48.752;11.338;2022-10-16T05:38:32;6.63;;;3.25;;
70535;SDS011;58089;48.752;11.338;2022-10-16T05:41:01;6.97;;;3.67;;
70535;SDS011;58089;48.752;11.338;2022-10-16T05:43:29;6.70;;;3.10;;
70535;SDS011;58089;48.752;11.338;2022-10-16T05:48:21;14.32;;;7.03;;
70535;SDS011;58089;48.752;11.338;2022-10-16T05:50:47;9.90;;;4.33;;
70535;SDS011;58089;48.752;11.338;2022-10-16T05:53:12;8.00;;;2.80;;
70535;SDS011;58089;48.752;11.338;2022-10-16T05:55:37;6.80;;;2.70;;
70535;SDS011;58089;48.752;11.338;2022-10-16T05:58:03;11.07;;;5.40;;
70535;SDS011;58089;48.752;11.338;2022-10-16T06:00:28;10.63;;;5.23;;
70535;SDS011;58089;48.752;11.338;2022-10-16T06:02:53;10.03;;;4.10;;
70535;SDS011;58089;48.752;11.338;2022-10-16T06:05:19;7.17;;;3.00;;
70535;SDS011;58089;48.752;11.338;2022-10-16T06:07:44;6.17;;;2.17;;
70535;SDS011;58089;48.752;11.338;2022-10-16T06:10:09;8.93;;;2.93;;
70535;SDS011;58089;48.752;11.338;2022-10-16T06:12:34;7.63;;;4.30;;
70535;SDS011;58089;48.752;11.338;2022-10-16T06:15:00;7.03;;;4.50;;
70535;SDS011;58089;48.752;11.338;2022-10-16T06:17:25;7.67;;;4.90;;
70535;SDS011;58089;48.752;11.338;2022-10-16T06:19:50;11.70;;;5.57;;
70535;SDS011;58089;48.752;11.338;2022-10-16T06:22:15;11.63;;;5.53;;
70535;SDS011;58089;48.752;11.338;2022-10-16T06:24:41;10.63;;;5.33;;
70535;SDS011;58089;48.752;11.338;2022-10-16T06:27:06;8.43;;;4.33;;
70535;SDS011;58089;48.752;11.338;2022-10-16T06:29:32;8.00;;;4.80;;
70535;SDS011;58089;48.752;11.338;2022-10-16T06:31:57;8.50;;;4.03;;
70535;SDS011;58089;48.752;11.338;2022-10-16T06:34:22;12.87;;;4.13;;
70535;SDS011;58089;48.752;11.338;2022-10-16T06:36:47;6.90;;;3.10;;
70535;SDS011;58089;48.752;11.338;2022-10-16T06:39:13;7.57;;;3.40;;
70535;SDS011;58089;48.752;11.338;2022-10-16T06:41:38;6.90;;;2.97;;
70535;SDS011;58089;48.752;11.338;2022-10-16T06:44:06;7.60;;;3.73;;
70535;SDS011;58089;48.752;11.338;2022-10-16T06:46:34;7.53;;;4.10;;
70535;SDS011;58089;48.752;11.338;2022-10-16T06:49:00;8.93;;;4.23;;
70535;SDS011;58089;48.752;11.338;2022-10-16T06:51:25;6.87;;;3.80;;
70535;SDS011;58089;48.752;11.338;2022-10-16T06:53:52;6.97;;;3.92;;
70535;SDS011;58089;48.752;11.338;2022-10-16T06:56:22;8.27;;;4.90;;
70535;SDS011;58089;48.752;11.338;2022-10-16T06:58:52;8.02;;;3.78;;
70535;SDS011;58089;48.752;11.338;2022-10-16T07:01:18;7.18;;;3.22;;
70535;SDS011;58089;48.752;11.338;2022-10-16T07:03:45;11.50;;;6.30;;
70535;SDS011;58089;48.752;11.338;2022-10-16T07:06:12;8.97;;;4.33;;
70535;SDS011;58089;48.752;11.338;2022-10-16T07:08:39;17.48;;;3.67;;
70535;SDS011;58089;48.752;11.338;2022-10-16T07:11:06;9.52;;;5.05;;
70535;SDS011;58089;48.752;11.338;2022-10-16T07:13:36;10.52;;;6.45;;
70535;SDS011;58089;48.752;11.338;2022-10-16T07:16:13;10.55;;;6.00;;
70535;SDS011;58089;48.752;11.338;2022-10-16T07:18:40;6.93;;;4.20;;
70535;SDS011;58089;48.752;11.338;2022-10-16T07:21:11;8.43;;;3.85;;
70535;SDS011;58089;48.752;11.338;2022-10-16T07:23:38;7.53;;;3.75;;
70535;SDS011;58089;48.752;11.338;2022-10-16T07:26:04;7.68;;;3.75;;
70535;SDS011;58089;48.752;11.338;2022-10-16T07:28:29;7.97;;;4.00;;
70535;SDS011;58089;48.752;11.338;2022-10-16T07:30:59;7.97;;;4.10;;
70535;SDS011;58089;48.752;11.338;2022-10-16T07:33:25;6.40;;;2.75;;
70535;SDS011;58089;48.752;11.338;2022-10-16T07:35:51;6.70;;;2.30;;
70535;SDS011;58089;48.752;11.338;2022-10-16T07:38:17;4.40;;;1.90;;
70535;SDS011;58089;48.752;11.338;2022-10-16T07:40:42;5.30;;;2.33;;
70535;SDS011;58089;48.752;11.338;2022-10-16T07:43:07;5.50;;;1.90;;
70535;SDS011;58089;48.752;11.338;2022-10-16T07:45:33;7.00;;;1.80;;
70535;SDS011;58089;48.752;11.338;2022-10-16T07:47:58;5.20;;;1.93;;
70535;SDS011;58089;48.752;11.338;2022-10-16T07:50:23;4.70;;;2.10;;
70535;SDS011;58089;48.752;11.338;2022-10-16T07:52:48;4.60;;;2.17;;
70535;SDS011;58089;48.752;11.338;2022-10-16T07:55:14;5.73;;;2.30;;
70535;SDS011;58089;48.752;11.338;2022-10-16T07:57:39;5.40;;;1.80;;
70535;SDS011;58089;48.752;11.338;2022-10-16T08:00:04;4.50;;;2.03;;
70535;SDS011;58089;48.752;11.338;2022-10-16T08:02:31;7.53;;;2.15;;
70535;SDS011;58089;48.752;11.338;2022-10-16T08:04:56;5.00;;;2.10;;
70535;SDS011;58089;48.752;11.338;2022-10-16T08:07:21;5.23;;;2.40;;
70535;SDS011;58089;48.752;11.338;2022-10-16T08:09:48;5.83;;;2.03;;
70535;SDS011;58089;48.752;11.338;2022-10-16T08:12:14;5.47;;;1.77;;
70535;SDS011;58089;48.752;11.338;2022-10-16T08:14:40;5.43;;;1.60;;
70535;SDS011;58089;48.752;11.338;2022-10-16T08:17:05;4.53;;;1.87;;
70535;SDS011;58089;48.752;11.338;2022-10-16T08:19:30;4.90;;;1.73;;
70535;SDS011;58089;48.752;11.338;2022-10-16T08:21:59;6.53;;;1.50;;
70535;SDS011;58089;48.752;11.338;2022-10-16T08:24:24;4.33;;;1.40;;
70535;SDS011;58089;48.752;11.338;2022-10-16T08:26:49;5.57;;;1.70;;
70535;SDS011;58089;48.752;11.338;2022-10-16T08:29:14;6.13;;;1.70;;
70535;SDS011;58089;48.752;11.338;2022-10-16T08:31:40;4.83;;;1.67;;
70535;SDS011;58089;48.752;11.338;2022-10-16T08:34:05;8.83;;;1.87;;
70535;SDS011;58089;48.752;11.338;2022-10-16T08:36:30;5.37;;;1.50;;
70535;SDS011;58089;48.752;11.338;2022-10-16T08:38:55;3.90;;;1.40;;
70535;SDS011;58089;48.752;11.338;2022-10-16T08:44:08;4.30;;;1.30;;
70535;SDS011;58089;48.752;11.338;2022-10-16T08:46:49;5.07;;;1.70;;
70535;SDS011;58089;48.752;11.338;2022-10-16T08:49:21;4.55;;;1.60;;
70535;SDS011;58089;48.752;11.338;2022-10-16T08:51:49;5.97;;;1.50;;
70535;SDS011;58089;48.752;11.338;2022-10-16T08:54:21;7.55;;;1.73;;
70535;SDS011;58089;48.752;11.338;2022-10-16T08:56:51;6.15;;;1.50;;
70535;SDS011;58089;48.752;11.338;2022-10-16T08:59:19;4.00;;;1.20;;
70535;SDS011;58089;48.752;11.338;2022-10-16T09:01:45;4.20;;;1.47;;
70535;SDS011;58089;48.752;11.338;2022-10-16T09:07:16;5.07;;;1.55;;
70535;SDS011;58089;48.752;11.338;2022-10-16T09:10:26;6.15;;;1.90;;
70535;SDS011;58089;48.752;11.338;2022-10-16T09:13:23;4.68;;;1.42;;
70535;SDS011;58089;48.752;11.338;2022-10-16T09:15:54;5.40;;;1.47;;
70535;SDS011;58089;48.752;11.338;2022-10-16T09:18:37;6.10;;;1.50;;
70535;SDS011;58089;48.752;11.338;2022-10-16T09:23:35;7.13;;;1.45;;
70535;SDS011;58089;48.752;11.338;2022-10-16T09:26:01;3.97;;;1.27;;
70535;SDS011;58089;48.752;11.338;2022-10-16T09:28:27;7.70;;;1.40;;
70535;SDS011;58089;48.752;11.338;2022-10-16T09:30:53;4.10;;;1.30;;
70535;SDS011;58089;48.752;11.338;2022-10-16T09:33:20;5.43;;;1.40;;
70535;SDS011;58089;48.752;11.338;2022-10-16T09:35:51;3.95;;;1.23;;
70535;SDS011;58089;48.752;11.338;2022-10-16T09:38:36;4.65;;;0.93;;
70535;SDS011;58089;48.752;11.338;2022-10-16T09:41:13;4.45;;;1.60;;
70535;SDS011;58089;48.752;11.338;2022-10-16T09:43:40;11.47;;;1.67;;
70535;SDS011;58089;48.752;11.338;2022-10-16T09:46:07;4.32;;;1.30;;
70535;SDS011;58089;48.752;11.338;2022-10-16T09:48:36;6.00;;;1.17;;
70535;SDS011;58089;48.752;11.338;2022-10-16T09:51:04;5.68;;;1.20;;
70535;SDS011;58089;48.752;11.338;2022-10-16T09:53:43;3.72;;;0.90;;
70535;SDS011;58089;48.752;11.338;2022-10-16T09:56:10;9.07;;;1.20;;
70535;SDS011;58089;48.752;11.338;2022-10-16T09:58:41;4.20;;;0.88;;
70535;SDS011;58089;48.752;11.338;2022-10-16T10:01:11;5.25;;;0.90;;
70535;SDS011;58089;48.752;11.338;2022-10-16T10:03:39;5.68;;;0.80;;
70535;SDS011;58089;48.752;11.338;2022-10-16T10:06:13;6.50;;;1.20;;
70535;SDS011;58089;48.752;11.338;2022-10-16T10:09:04;3.50;;;1.03;;
70535;SDS011;58089;48.752;11.338;2022-10-16T10:14:17;5.65;;;0.93;;
70535;SDS011;58089;48.752;11.338;2022-10-16T10:16:42;4.43;;;0.77;;
70535;SDS011;58089;48.752;11.338;2022-10-16T10:19:13;4.00;;;1.20;;
70535;SDS011;58089;48.752;11.338;2022-10-16T10:21:40;5.30;;;1.08;;
70535;SDS011;58089;48.752;11.338;2022-10-16T10:24:09;3.90;;;0.90;;
70535;SDS011;58089;48.752;11.338;2022-10-16T10:26:35;7.00;;;1.30;;
70535;SDS011;58089;48.752;11.338;2022-10-16T10:29:26;7.13;;;1.70;;
70535;SDS011;58089;48.752;11.338;2022-10-16T10:40:06;6.03;;;0.97;;
70535;SDS011;58089;48.752;11.338;2022-10-16T10:42:43;3.90;;;0.95;;
70535;SDS011;58089;48.752;11.338;2022-10-16T10:56:00;3.75;;;0.90;;
70535;SDS011;58089;48.752;11.338;2022-10-16T11:01:22;5.72;;;1.13;;
70535;SDS011;58089;48.752;11.338;2022-10-16T11:04:00;3.72;;;0.80;;
70535;SDS011;58089;48.752;11.338;2022-10-16T11:06:40;4.23;;;0.90;;
70535;SDS011;58089;48.752;11.338;2022-10-16T11:12:01;4.18;;;0.95;;
70535;SDS011;58089;48.752;11.338;2022-10-16T11:14:40;6.57;;;0.93;;
70535;SDS011;58089;48.752;11.338;2022-10-16T11:17:23;3.97;;;1.17;;
70535;SDS011;58089;48.752;11.338;2022-10-16T11:22:44;5.68;;;1.00;;
70535;SDS011;58089;48.752;11.338;2022-10-16T11:25:26;5.97;;;1.10;;
70535;SDS011;58089;48.752;11.338;2022-10-16T11:28:12;4.07;;;1.13;;
70535;SDS011;58089;48.752;11.338;2022-10-16T11:30:50;4.90;;;1.00;;
70535;SDS011;58089;48.752;11.338;2022-10-16T11:38:30;4.85;;;0.90;;
70535;SDS011;58089;48.752;11.338;2022-10-16T11:41:04;3.88;;;1.00;;
70535;SDS011;58089;48.752;11.338;2022-10-16T11:43:38;5.15;;;1.20;;
70535;SDS011;58089;48.752;11.338;2022-10-16T11:46:17;3.77;;;1.00;;
70535;SDS011;58089;48.752;11.338;2022-10-16T11:51:24;5.47;;;1.10;;
70535;SDS011;58089;48.752;11.338;2022-10-16T11:54:02;5.13;;;1.25;;
70535;SDS011;58089;48.752;11.338;2022-10-16T11:56:39;5.38;;;1.13;;
70535;SDS011;58089;48.752;11.338;2022-10-16T11:59:08;4.90;;;1.13;;
70535;SDS011;58089;48.752;11.338;2022-10-16T12:01:48;4.00;;;0.90;;
70535;SDS011;58089;48.752;11.338;2022-10-16T12:04:22;4.38;;;1.00;;
70535;SDS011;58089;48.752;11.338;2022-10-16T12:07:03;6.95;;;1.40;;
70535;SDS011;58089;48.752;11.338;2022-10-16T12:09:31;4.35;;;1.33;;
70535;SDS011;58089;48.752;11.338;2022-10-16T12:11:58;3.80;;;0.97;;
70535;SDS011;58089;48.752;11.338;2022-10-16T12:17:02;7.32;;;1.10;;
70535;SDS011;58089;48.752;11.338;2022-10-16T12:19:57;4.45;;;0.88;;
70535;SDS011;58089;48.752;11.338;2022-10-16T12:22:23;3.77;;;0.90;;
70535;SDS011;58089;48.752;11.338;2022-10-16T12:24:50;5.55;;;1.10;;
70535;SDS011;58089;48.752;11.338;2022-10-16T12:27:21;4.63;;;1.20;;
70535;SDS011;58089;48.752;11.338;2022-10-16T12:29:48;3.20;;;0.82;;
70535;SDS011;58089;48.752;11.338;2022-10-16T12:32:23;4.23;;;1.47;;
70535;SDS011;58089;48.752;11.338;2022-10-16T12:34:53;4.05;;;1.17;;
70535;SDS011;58089;48.752;11.338;2022-10-16T12:37:30;4.47;;;0.90;;
70535;SDS011;58089;48.752;11.338;2022-10-16T12:39:59;4.50;;;1.23;;
70535;SDS011;58089;48.752;11.338;2022-10-16T12:42:36;3.65;;;0.95;;
70535;SDS011;58089;48.752;11.338;2022-10-16T12:45:12;3.67;;;0.90;;
70535;SDS011;58089;48.752;11.338;2022-10-16T12:47:49;4.20;;;0.80;;
70535;SDS011;58089;48.752;11.338;2022-10-16T12:50:23;3.75;;;1.00;;
70535;SDS011;58089;48.752;11.338;2022-10-16T12:52:50;3.67;;;1.00;;
70535;SDS011;58089;48.752;11.338;2022-10-16T12:55:16;3.33;;;0.87;;
70535;SDS011;58089;48.752;11.338;2022-10-16T13:00:45;4.22;;;1.08;;
70535;SDS011;58089;48.752;11.338;2022-10-16T13:03:42;3.53;;;0.93;;
70535;SDS011;58089;48.752;11.338;2022-10-16T13:06:33;6.50;;;1.27;;
70535;SDS011;58089;48.752;11.338;2022-10-16T13:11:46;4.17;;;1.03;;
70535;SDS011;58089;48.752;11.338;2022-10-16T13:14:25;4.82;;;0.93;;
70535;SDS011;58089;48.752;11.338;2022-10-16T13:17:37;5.47;;;0.90;;
70535;SDS011;58089;48.752;11.338;2022-10-16T13:28:28;4.40;;;0.90;;
70535;SDS011;58089;48.752;11.338;2022-10-16T13:30:56;3.20;;;0.75;;
70535;SDS011;58089;48.752;11.338;2022-10-16T13:36:17;5.13;;;1.00;;
70535;SDS011;58089;48.752;11.338;2022-10-16T13:38:45;3.83;;;0.80;;
70535;SDS011;58089;48.752;11.338;2022-10-16T13:41:17;4.83;;;0.90;;
70535;SDS011;58089;48.752;11.338;2022-10-16T13:43:45;3.00;;;0.60;;
70535;SDS011;58089;48.752;11.338;2022-10-16T13:46:12;5.35;;;1.00;;
70535;SDS011;58089;48.752;11.338;2022-10-16T13:48:42;3.55;;;0.90;;
70535;SDS011;58089;48.752;11.338;2022-10-16T13:51:14;3.20;;;0.70;;
70535;SDS011;58089;48.752;11.338;2022-10-16T13:53:41;5.47;;;0.90;;
70535;SDS011;58089;48.752;11.338;2022-10-16T13:56:10;3.90;;;1.00;;
70535;SDS011;58089;48.752;11.338;2022-10-16T13:58:36;4.10;;;1.40;;
70535;SDS011;58089;48.752;11.338;2022-10-16T14:01:03;8.60;;;1.20;;
70535;SDS011;58089;48.752;11.338;2022-10-16T14:03:30;4.28;;;1.05;;
70535;SDS011;58089;48.752;11.338;2022-10-16T14:05:57;3.70;;;0.90;;
70535;SDS011;58089;48.752;11.338;2022-10-16T14:08:28;4.17;;;0.90;;
70535;SDS011;58089;48.752;11.338;2022-10-16T14:10:55;3.70;;;0.90;;
70535;SDS011;58089;48.752;11.338;2022-10-16T14:13:29;4.25;;;1.08;;
70535;SDS011;58089;48.752;11.338;2022-10-16T14:15:57;6.25;;;0.82;;
70535;SDS011;58089;48.752;11.338;2022-10-16T14:18:25;6.18;;;1.00;;
70535;SDS011;58089;48.752;11.338;2022-10-16T14:20:51;3.80;;;0.93;;
70535;SDS011;58089;48.752;11.338;2022-10-16T14:25:53;3.90;;;0.80;;
70535;SDS011;58089;48.752;11.338;2022-10-16T14:28:22;4.00;;;0.98;;
70535;SDS011;58089;48.752;11.338;2022-10-16T14:30:52;5.53;;;0.90;;
70535;SDS011;58089;48.752;11.338;2022-10-16T14:33:24;3.30;;;0.80;;
70535;SDS011;58089;48.752;11.338;2022-10-16T14:35:59;4.57;;;0.82;;
70535;SDS011;58089;48.752;11.338;2022-10-16T14:38:40;3.63;;;0.95;;
70535;SDS011;58089;48.752;11.338;2022-10-16T14:41:07;4.80;;;0.90;;
70535;SDS011;58089;48.752;11.338;2022-10-16T14:43:36;5.20;;;0.90;;
70535;SDS011;58089;48.752;11.338;2022-10-16T14:46:03;3.75;;;1.00;;
70535;SDS011;58089;48.752;11.338;2022-10-16T14:48:32;5.97;;;1.10;;
70535;SDS011;58089;48.752;11.338;2022-10-16T14:50:57;4.27;;;1.07;;
70535;SDS011;58089;48.752;11.338;2022-10-16T14:53:23;4.20;;;0.80;;
70535;SDS011;58089;48.752;11.338;2022-10-16T14:55:48;7.10;;;1.03;;
70535;SDS011;58089;48.752;11.338;2022-10-16T14:58:18;4.65;;;0.90;;
70535;SDS011;58089;48.752;11.338;2022-10-16T15:00:44;15.07;;;1.20;;
70535;SDS011;58089;48.752;11.338;2022-10-16T15:03:10;3.67;;;0.90;;
70535;SDS011;58089;48.752;11.338;2022-10-16T15:05:35;3.37;;;0.80;;
70535;SDS011;58089;48.752;11.338;2022-10-16T15:08:00;5.07;;;0.80;;
70535;SDS011;58089;48.752;11.338;2022-10-16T15:10:27;5.03;;;1.00;;
70535;SDS011;58089;48.752;11.338;2022-10-16T15:12:53;6.15;;;0.90;;
70535;SDS011;58089;48.752;11.338;2022-10-16T15:15:27;4.40;;;1.00;;
70535;SDS011;58089;48.752;11.338;2022-10-16T15:17:56;4.65;;;1.23;;
70535;SDS011;58089;48.752;11.338;2022-10-16T15:20:25;6.57;;;1.50;;
70535;SDS011;58089;48.752;11.338;2022-10-16T15:22:59;5.75;;;1.33;;
70535;SDS011;58089;48.752;11.338;2022-10-16T15:25:48;6.73;;;1.30;;
70535;SDS011;58089;48.752;11.338;2022-10-16T15:28:16;7.95;;;1.27;;
70535;SDS011;58089;48.752;11.338;2022-10-16T15:30:42;5.93;;;1.20;;
70535;SDS011;58089;48.752;11.338;2022-10-16T15:33:11;8.55;;;1.02;;
70535;SDS011;58089;48.752;11.338;2022-10-16T15:35:39;4.13;;;1.10;;
70535;SDS011;58089;48.752;11.338;2022-10-16T15:38:04;7.60;;;1.13;;
70535;SDS011;58089;48.752;11.338;2022-10-16T15:40:29;6.50;;;1.10;;
70535;SDS011;58089;48.752;11.338;2022-10-16T15:42:55;3.70;;;1.03;;
70535;SDS011;58089;48.752;11.338;2022-10-16T15:45:20;4.73;;;1.20;;
70535;SDS011;58089;48.752;11.338;2022-10-16T15:47:45;8.05;;;1.08;;
70535;SDS011;58089;48.752;11.338;2022-10-16T15:50:11;5.80;;;1.23;;
70535;SDS011;58089;48.752;11.338;2022-10-16T15:52:38;4.55;;;1.30;;
70535;SDS011;58089;48.752;11.338;2022-10-16T15:55:04;4.83;;;1.00;;
70535;SDS011;58089;48.752;11.338;2022-10-16T15:57:31;4.95;;;0.90;;
70535;SDS011;58089;48.752;11.338;2022-10-16T15:59:56;3.80;;;1.00;;
70535;SDS011;58089;48.752;11.338;2022-10-16T16:02:21;7.90;;;1.37;;
70535;SDS011;58089;48.752;11.338;2022-10-16T16:04:46;10.07;;;1.60;;